Time;durP1;ratioP1;P1;durP2;ratioP2;P2;SDS_P1;SDS_P2;PMS_P1;PMS_P2;Temp;Humidity;BMP_temperature;BMP_pressure;BME280_temperature;BME280_humidity;BME280_pressure;Samples;Min_cycle;Max_cycle;Signal;HPM_P1;HPM_P2
2023/02/11 00:01:28;;;;;;;4.43;3.78;;;;;;;14.73;100.00;103334.78;5033753;28;20021;-76
2023/02/11 00:03:53;;;;;;;;;;;;;;;14.76;100.00;103340.56;5045977;28;20488;-75
2023/02/11 00:06:19;;;;;;;4.63;4.05;;;;;;;15.01;100.00;103330.56;5051073;28;19921;-75
2023/02/11 00:08:45;;;;;;;6.38;4.45;;;;;;;14.93;100.00;103329.22;5050811;28;20041;-75
2023/02/11 00:11:15;;;;;;;3.92;3.53;;;;;;;14.95;100.00;103327.84;5050956;28;20108;-76
2023/02/11 00:13:42;;;;;;;4.70;4.28;;;;;;;15.08;100.00;103331.09;5051108;28;20116;-76
2023/02/11 00:16:15;;;;;;;4.85;4.30;;;;;;;14.99;100.00;103320.69;5054988;28;20053;-74
2023/02/11 00:18:41;;;;;;;5.03;4.30;;;;;;;14.97;100.00;103319.31;5054951;28;20502;-73
2023/02/11 00:21:09;;;;;;;5.78;5.28;;;;;;;15.00;100.00;103310.47;5055414;28;20021;-76
2023/02/11 00:23:35;;;;;;;5.15;3.70;;;;;;;15.07;100.00;103321.19;5054908;28;20060;-74
2023/02/11 00:26:01;;;;;;;5.15;4.68;;;;;;;15.17;100.00;103321.16;5054045;28;20056;-76
2023/02/11 00:28:26;;;;;;;6.53;4.97;;;;;;;15.20;100.00;103315.09;5055189;28;20080;-75
2023/02/11 00:30:56;;;;;;;6.18;4.28;;;;;;;15.25;100.00;103313.13;5055048;28;20112;-74
2023/02/11 00:33:22;;;;;;;;;;;;;;;15.24;100.00;103311.47;5055476;28;20071;-75
2023/02/11 00:35:47;;;;;;;4.38;3.85;;;;;;;15.28;100.00;103317.25;5054638;28;20403;-74
2023/02/11 00:38:13;;;;;;;4.70;4.30;;;;;;;15.39;100.00;103327.13;5054947;28;20578;-76
2023/02/11 00:40:39;;;;;;;8.38;5.32;;;;;;;15.36;100.00;103327.69;5054615;28;20069;-75
2023/02/11 00:43:04;;;;;;;7.70;6.00;;;;;;;15.42;100.00;103329.31;5058672;28;20115;-76
2023/02/11 00:45:30;;;;;;;4.43;4.07;;;;;;;15.63;100.00;103337.50;5075726;28;20505;-74
2023/02/11 00:47:56;;;;;;;5.70;5.25;;;;;;;15.60;100.00;103340.78;5057294;28;20029;-76
2023/02/11 00:50:22;;;;;;;6.50;4.65;;;;;;;15.87;100.00;103345.88;5055700;28;20021;-76
2023/02/11 00:52:47;;;;;;;4.18;3.78;;;;;;;15.95;100.00;103342.56;5054982;28;20376;-76
2023/02/11 00:55:14;;;;;;;5.47;4.97;;;;;;;15.97;100.00;103346.66;5055622;28;20056;-76
2023/02/11 00:57:40;;;;;;;5.53;4.50;;;;;;;15.81;100.00;103345.94;5055283;28;20064;-77
2023/02/11 01:00:07;;;;;;;8.38;4.63;;;;;;;15.88;100.00;103348.38;5055281;28;20036;-77
2023/02/11 01:02:32;;;;;;;5.63;5.13;;;;;;;16.23;100.00;103346.47;5055428;28;20114;-79
2023/02/11 01:04:58;;;;;;;5.32;4.82;;;;;;;15.92;100.00;103348.63;5055441;28;20057;-76
2023/02/11 01:07:25;;;;;;;7.95;4.97;;;;;;;15.82;100.00;103352.28;5055071;28;20183;-76
2023/02/11 01:09:50;;;;;;;8.15;4.55;;;;;;;15.98;100.00;103353.00;5055266;28;20051;-75
2023/02/11 01:12:16;;;;;;;7.97;5.22;;;;;;;15.80;100.00;103346.22;5055297;28;20060;-75
2023/02/11 01:14:42;;;;;;;4.80;4.10;;;;;;;15.76;100.00;103353.41;5055237;28;20060;-76
2023/02/11 01:17:08;;;;;;;4.72;4.25;;;;;;;15.88;100.00;103358.59;5054852;28;20021;-76
2023/02/11 01:19:35;;;;;;;8.13;5.63;;;;;;;15.78;100.00;103357.53;5055013;28;20021;-76
2023/02/11 01:22:01;;;;;;;8.25;6.13;;;;;;;15.95;100.00;103364.63;5054929;28;20086;-76
2023/02/11 01:24:27;;;;;;;6.25;5.65;;;;;;;16.10;100.00;103370.03;5054897;28;20032;-77
2023/02/11 01:26:53;;;;;;;5.93;4.95;;;;;;;16.08;100.00;103374.97;5053684;28;20453;-76
2023/02/11 01:29:18;;;;;;;6.15;4.95;;;;;;;16.30;100.00;103363.50;5054925;28;20498;-76
2023/02/11 01:31:44;;;;;;;6.43;5.72;;;;;;;16.31;100.00;103356.88;5054917;28;20070;-76
2023/02/11 01:34:09;;;;;;;5.05;4.30;;;;;;;16.32;100.00;103353.84;5054699;28;20036;-75
2023/02/11 01:36:35;;;;;;;6.53;4.88;;;;;;;16.11;100.00;103354.28;5054597;28;20033;-75
2023/02/11 01:39:01;;;;;;;6.30;4.93;;;;;;;15.70;100.00;103344.34;5054619;28;20025;-76
2023/02/11 01:41:26;;;;;;;6.90;5.45;;;;;;;15.78;100.00;103349.25;5054155;28;20454;-76
2023/02/11 01:43:52;;;;;;;7.43;4.95;;;;;;;16.05;100.00;103340.53;5054557;28;20115;-76
2023/02/11 01:46:33;;;;;;;5.10;4.60;;;;;;;16.15;100.00;103328.59;5054607;28;20029;-78
2023/02/11 01:49:04;;;;;;;6.13;4.80;;;;;;;16.27;100.00;103328.22;5054522;28;20028;-75
2023/02/11 01:51:36;;;;;;;5.15;4.72;;;;;;;16.32;100.00;103323.50;5054323;28;20091;-75
2023/02/11 01:59:55;;;;;;;4.28;3.38;;;;;;;15.67;100.00;103316.53;5054348;28;20040;-77
2023/02/11 02:02:26;;;;;;;6.38;5.10;;;;;;;15.56;100.00;103312.97;5054045;28;20033;-76
2023/02/11 02:05:19;;;;;;;5.60;5.07;;;;;;;15.64;100.00;103306.91;5053996;28;20104;-76
2023/02/11 02:07:48;;;;;;;6.22;5.03;;;;;;;15.61;100.00;103298.34;5046786;28;20420;-76
2023/02/11 02:10:18;;;;;;;10.02;5.88;;;;;;;15.67;100.00;103298.06;5054202;28;20388;-77
2023/02/11 02:12:43;;;;;;;5.05;4.55;;;;;;;15.75;100.00;103293.88;5053764;28;20052;-77
2023/02/11 02:15:28;;;;;;;6.30;5.30;;;;;;;15.80;100.00;103291.09;5054077;28;20425;-76
2023/02/11 02:17:58;;;;;;;6.35;5.15;;;;;;;15.74;100.00;103293.06;5054028;28;20021;-75
2023/02/11 02:20:54;;;;;;;6.63;5.70;;;;;;;15.67;100.00;103294.50;5053720;28;20025;-76
2023/02/11 02:23:42;;;;;;;7.22;4.95;;;;;;;15.44;100.00;103296.78;5053482;28;20037;-76
2023/02/11 02:26:38;;;;;;;6.68;4.60;;;;;;;15.48;100.00;103300.63;5053967;28;20021;-76
2023/02/11 02:29:41;;;;;;;5.10;4.60;;;;;;;15.47;100.00;103303.66;5053886;28;20454;-76
2023/02/11 02:32:35;;;;;;;6.85;4.72;;;;;;;15.48;100.00;103314.38;5053429;28;20029;-76
2023/02/11 02:35:13;;;;;;;5.20;4.70;;;;;;;15.51;100.00;103319.34;5053771;28;20467;-76
2023/02/11 02:38:07;;;;;;;4.90;3.63;;;;;;;15.45;100.00;103326.00;5053574;28;20021;-78
2023/02/11 02:40:44;;;;;;;5.72;5.07;;;;;;;15.63;100.00;103326.47;5053414;28;20049;-76
2023/02/11 02:43:10;;;;;;;6.88;4.10;;;;;;;15.71;100.00;103332.19;5053230;28;20391;-76
2023/02/11 02:45:36;;;;;;;5.40;3.85;;;;;;;15.59;100.00;103325.38;5052591;28;20033;-76
2023/02/11 02:48:02;;;;;;;9.40;5.45;;;;;;;15.58;100.00;103319.03;5053401;28;20383;-76
2023/02/11 02:50:32;;;;;;;4.00;3.70;;;;;;;15.58;100.00;103321.78;5053459;28;20467;-76
2023/02/11 02:53:10;;;;;;;;;;;;;;;15.42;100.00;103314.72;5053772;28;20481;-76
2023/02/11 02:55:51;;;;;;;5.57;5.03;;;;;;;15.27;100.00;103302.66;5053069;28;19917;-75
2023/02/11 02:58:55;;;;;;;3.38;3.08;;;;;;;15.29;100.00;103299.63;5053346;28;20040;-76
2023/02/11 03:01:56;;;;;;;5.78;4.10;;;;;;;15.49;100.00;103296.78;5033496;28;20052;-76
2023/02/11 03:04:46;;;;;;;4.75;4.35;;;;;;;15.60;100.00;103289.25;5011059;28;20084;-76
2023/02/11 03:07:24;;;;;;;5.30;4.80;;;;;;;15.66;100.00;103281.81;5032130;28;20064;-76
2023/02/11 03:09:59;;;;;;;5.82;5.32;;;;;;;15.75;100.00;103288.38;5033181;28;20026;-76
2023/02/11 03:12:28;;;;;;;4.95;4.45;;;;;;;15.75;100.00;103291.13;5033096;28;20061;-76
2023/02/11 03:14:53;;;;;;;5.60;4.93;;;;;;;15.79;100.00;103289.41;5034106;28;20480;-75
2023/02/11 03:17:20;;;;;;;6.00;5.40;;;;;;;15.81;100.00;103292.75;5052641;28;20280;-76
2023/02/11 03:19:49;;;;;;;6.60;5.95;;;;;;;15.88;100.00;103287.72;5050691;28;20029;-77
2023/02/11 03:22:23;;;;;;;7.45;6.32;;;;;;;15.94;100.00;103289.31;5047000;28;20025;-79
2023/02/11 03:24:49;;;;;;;6.32;4.75;;;;;;;15.93;100.00;103284.91;5052599;28;20021;-76
2023/02/11 03:27:26;;;;;;;6.68;6.00;;;;;;;15.77;100.00;103283.38;5052662;28;20029;-76
2023/02/11 03:30:10;;;;;;;6.43;5.82;;;;;;;15.80;100.00;103286.41;5052745;28;20099;-76
2023/02/11 03:32:40;;;;;;;5.75;5.35;;;;;;;15.85;100.00;103277.25;5052690;28;20409;-75
2023/02/11 03:35:27;;;;;;;7.32;6.80;;;;;;;15.81;100.00;103278.97;5052467;28;20039;-75
2023/02/11 03:38:17;;;;;;;6.22;5.80;;;;;;;15.62;100.00;103267.78;5052567;28;20423;-76
2023/02/11 03:40:44;;;;;;;5.95;5.13;;;;;;;15.33;100.00;103264.06;5052398;28;20491;-76
2023/02/11 03:43:21;;;;;;;8.52;7.82;;;;;;;15.48;100.00;103261.22;5052132;28;20033;-78
2023/02/11 03:45:50;;;;;;;6.45;5.90;;;;;;;15.22;100.00;103258.63;5052364;28;20025;-77
2023/02/11 03:48:24;;;;;;;6.70;6.10;;;;;;;15.23;100.00;103262.19;5052549;28;20379;-76
2023/02/11 03:50:51;;;;;;;8.18;6.63;;;;;;;15.27;100.00;103266.03;5052091;28;20072;-76
2023/02/11 03:53:19;;;;;;;10.30;7.80;;;;;;;15.18;100.00;103260.28;5052404;28;20494;-76
2023/02/11 03:55:48;;;;;;;7.57;6.90;;;;;;;15.16;100.00;103259.75;5052144;28;20100;-78
2023/02/11 03:58:14;;;;;;;7.38;6.45;;;;;;;15.18;100.00;103252.00;5052343;28;20025;-76
2023/02/11 04:00:41;;;;;;;6.45;5.82;;;;;;;15.19;100.00;103261.13;5052385;28;20025;-76
2023/02/11 04:05:42;;;;;;;8.07;7.07;;;;;;;14.98;100.00;103254.88;5154369;23;20055;-76
2023/02/11 04:08:08;;;;;;;5.72;5.22;;;;;;;14.95;100.00;103267.25;4973577;28;20035;-76
2023/02/11 04:10:33;;;;;;;8.98;5.50;;;;;;;14.96;100.00;103274.44;4972823;28;20035;-76
2023/02/11 04:12:59;;;;;;;8.57;6.75;;;;;;;14.91;100.00;103273.63;4972451;28;20023;-76
2023/02/11 04:15:24;;;;;;;8.07;6.55;;;;;;;14.86;100.00;103279.16;4972370;28;20027;-76
2023/02/11 04:17:50;;;;;;;6.28;5.60;;;;;;;14.94;100.00;103278.56;4954314;29;20074;-76
2023/02/11 04:20:16;;;;;;;7.10;5.80;;;;;;;14.99;100.00;103289.56;4954513;28;20031;-76
2023/02/11 04:22:42;;;;;;;6.63;5.13;;;;;;;15.10;100.00;103291.16;4954148;28;20039;-76
2023/02/11 04:25:08;;;;;;;8.80;8.00;;;;;;;15.19;100.00;103291.44;4954211;28;20034;-76
2023/02/11 04:27:34;;;;;;;7.75;7.15;;;;;;;15.01;100.00;103289.28;4954124;28;20027;-76
2023/02/11 04:30:01;;;;;;;6.45;5.90;;;;;;;15.21;100.00;103294.72;4968998;28;20397;-76
2023/02/11 04:32:26;;;;;;;7.70;6.93;;;;;;;15.25;100.00;103298.53;4954226;28;20035;-76
2023/02/11 04:34:53;;;;;;;7.35;6.75;;;;;;;15.33;100.00;103302.63;4954467;28;20036;-76
2023/02/11 04:37:18;;;;;;;6.97;6.28;;;;;;;15.42;100.00;103298.19;4958075;28;20042;-77
2023/02/11 04:39:44;;;;;;;8.18;6.47;;;;;;;15.11;100.00;103297.50;4973435;28;20031;-76
2023/02/11 04:42:09;;;;;;;6.95;5.57;;;;;;;14.97;100.00;103303.63;4973309;28;20318;-76
2023/02/11 04:44:35;;;;;;;7.60;6.68;;;;;;;14.96;100.00;103299.22;4972897;28;20054;-77
2023/02/11 04:47:01;;;;;;;10.15;7.63;;;;;;;14.95;100.00;103297.56;4969274;28;20039;-76
2023/02/11 04:49:26;;;;;;;10.75;7.55;;;;;;;14.99;100.00;103295.91;4973148;28;20035;-76
2023/02/11 04:51:52;;;;;;;10.55;6.68;;;;;;;14.81;100.00;103295.66;4967990;28;20035;-76
2023/02/11 04:54:18;;;;;;;13.98;9.90;;;;;;;14.95;100.00;103297.56;4962467;28;20077;-77
2023/02/11 04:56:44;;;;;;;9.82;8.68;;;;;;;14.84;100.00;103295.94;4973136;28;20038;-77
2023/02/11 04:59:11;;;;;;;10.35;8.65;;;;;;;14.78;100.00;103291.56;4973088;28;20034;-76
2023/02/11 05:01:37;;;;;;;7.60;6.88;;;;;;;15.10;100.00;103298.59;4974472;28;20110;-76
2023/02/11 05:04:02;;;;;;;7.72;6.32;;;;;;;15.12;100.00;103302.75;4976366;28;20138;-76
2023/02/11 05:06:28;;;;;;;8.05;7.15;;;;;;;15.05;100.00;103299.47;4976251;28;20114;-75
2023/02/11 05:08:53;;;;;;;7.93;7.03;;;;;;;14.94;100.00;103300.59;4976556;28;20031;-75
2023/02/11 05:11:22;;;;;;;9.55;8.73;;;;;;;14.95;100.00;103303.06;4976500;28;20042;-75
2023/02/11 05:13:48;;;;;;;7.90;7.20;;;;;;;14.86;100.00;103306.66;4976386;28;20027;-75
2023/02/11 05:16:14;;;;;;;7.18;6.30;;;;;;;15.02;100.00;103307.44;4976083;28;20031;-75
2023/02/11 05:18:41;;;;;;;11.20;8.13;;;;;;;15.01;100.00;103305.81;4976139;28;20030;-75
2023/02/11 05:21:09;;;;;;;11.48;8.60;;;;;;;15.10;100.00;103309.63;4976316;28;20077;-75
2023/02/11 05:23:35;;;;;;;9.65;8.68;;;;;;;15.14;100.00;103311.53;4976238;28;20117;-75
2023/02/11 05:26:02;;;;;;;8.93;8.20;;;;;;;15.33;100.00;103306.19;4976501;28;20120;-75
2023/02/11 05:28:28;;;;;;;10.45;9.40;;;;;;;15.25;100.00;103307.63;4975899;28;20042;-75
2023/02/11 05:30:54;;;;;;;9.98;8.95;;;;;;;15.15;100.00;103306.84;4976450;28;20026;-75
2023/02/11 05:33:19;;;;;;;9.80;8.65;;;;;;;15.01;100.00;103305.81;4976041;28;20035;-75
2023/02/11 05:35:45;;;;;;;11.27;9.02;;;;;;;14.91;100.00;103301.97;4976362;28;20035;-76
2023/02/11 05:38:10;;;;;;;10.48;8.90;;;;;;;14.39;100.00;103311.41;4975768;28;20531;-74
2023/02/11 05:40:36;;;;;;;9.77;8.88;;;;;;;14.67;100.00;103310.03;4974694;28;20057;-76
2023/02/11 05:43:02;;;;;;;10.98;9.82;;;;;;;14.66;100.00;103307.53;4975875;28;20034;-78
2023/02/11 05:45:28;;;;;;;10.23;8.13;;;;;;;14.78;100.00;103308.06;4976169;28;20479;-77
2023/02/11 05:47:53;;;;;;;12.77;10.00;;;;;;;14.83;100.00;103316.31;4975584;28;20039;-75
2023/02/11 05:50:19;;;;;;;10.43;9.50;;;;;;;14.76;100.00;103321.28;4975854;28;20034;-76
2023/02/11 05:52:45;;;;;;;14.68;13.45;;;;;;;14.88;100.00;103323.72;4975756;28;20058;-75
2023/02/11 05:55:10;;;;;;;16.00;14.73;;;;;;;14.87;100.00;103322.91;4975717;28;20027;-75
2023/02/11 05:57:36;;;;;;;13.50;12.13;;;;;;;14.80;100.00;103324.28;4975938;28;20076;-75
2023/02/11 06:00:03;;;;;;;23.65;13.50;;;;;;;15.10;100.00;103320.63;4975323;28;20039;-75
2023/02/11 06:02:28;;;;;;;12.75;11.63;;;;;;;15.25;100.00;103321.38;4975477;28;20069;-75
2023/02/11 06:04:54;;;;;;;11.52;10.50;;;;;;;15.22;100.00;103324.72;4975311;28;20075;-76
2023/02/11 06:07:19;;;;;;;11.60;10.50;;;;;;;15.42;100.00;103328.50;4975304;28;20042;-75
2023/02/11 06:09:45;;;;;;;14.85;13.57;;;;;;;15.47;100.00;103323.75;4975715;28;20143;-75
2023/02/11 06:12:10;;;;;;;13.15;10.82;;;;;;;15.42;100.00;103323.00;4974836;28;20031;-75
2023/02/11 06:14:36;;;;;;;11.15;10.15;;;;;;;15.19;100.00;103319.78;4975393;28;20409;-75
2023/02/11 06:17:02;;;;;;;12.75;11.45;;;;;;;15.25;100.00;103326.06;4975124;28;20029;-76
2023/02/11 06:19:27;;;;;;;12.02;10.73;;;;;;;15.33;100.00;103324.66;4971823;28;20037;-76
2023/02/11 06:21:54;;;;;;;11.70;10.50;;;;;;;15.63;100.00;103323.72;4965094;28;20023;-75
2023/02/11 06:24:20;;;;;;;15.27;13.68;;;;;;;15.33;100.00;103316.41;4956173;28;20042;-76
2023/02/11 06:26:46;;;;;;;13.85;12.45;;;;;;;15.29;100.00;103321.66;4958720;28;20165;-76
2023/02/11 06:29:11;;;;;;;15.65;12.27;;;;;;;15.50;100.00;103317.72;4975128;28;20035;-76
2023/02/11 06:31:38;;;;;;;11.75;10.52;;;;;;;15.59;100.00;103320.69;4974955;28;20042;-76
2023/02/11 06:34:03;;;;;;;13.02;11.60;;;;;;;15.80;100.00;103324.19;4968716;28;20041;-76
2023/02/11 06:36:29;;;;;;;17.48;16.10;;;;;;;15.62;100.00;103311.03;4955754;28;20027;-76
2023/02/11 06:38:55;;;;;;;15.05;12.93;;;;;;;15.51;100.00;103316.59;4974565;28;20034;-76
2023/02/11 06:41:21;;;;;;;16.63;12.73;;;;;;;15.48;100.00;103306.13;4974864;28;20030;-76
2023/02/11 06:43:47;;;;;;;16.83;15.30;;;;;;;15.54;100.00;103306.94;4974736;28;20042;-76
2023/02/11 06:46:13;;;;;;;14.50;12.07;;;;;;;15.36;100.00;103308.41;4969413;28;20102;-76
2023/02/11 06:48:39;;;;;;;12.88;11.07;;;;;;;15.06;100.00;103314.06;4972344;28;20042;-75
2023/02/11 06:51:10;;;;;;;12.77;11.48;;;;;;;14.65;100.00;103319.66;4974632;28;20097;-75
2023/02/11 06:53:45;;;;;;;12.85;11.55;;;;;;;14.55;100.00;103325.19;4974675;28;20034;-75
2023/02/11 06:56:16;;;;;;;12.35;10.95;;;;;;;14.72;100.00;103317.44;4974297;28;20031;-76
2023/02/11 06:58:42;;;;;;;14.98;12.13;;;;;;;15.27;100.00;103319.19;4974356;28;20027;-76
2023/02/11 07:01:10;;;;;;;15.25;13.02;;;;;;;15.36;100.00;103316.69;4967031;28;20037;-75
2023/02/11 07:03:38;;;;;;;15.35;13.95;;;;;;;15.47;100.00;103320.19;4955105;28;20035;-77
2023/02/11 07:06:06;;;;;;;18.48;17.05;;;;;;;15.70;100.00;103322.28;4968252;28;20039;-76
2023/02/11 07:08:32;;;;;;;17.23;13.35;;;;;;;15.65;100.00;103335.31;4972783;28;20612;-75
2023/02/11 07:10:58;;;;;;;13.43;11.95;;;;;;;15.78;100.00;103335.47;4974588;28;20477;-75
2023/02/11 07:13:24;;;;;;;15.75;14.10;;;;;;;15.71;100.00;103334.13;4969247;28;20079;-76
2023/02/11 07:15:49;;;;;;;16.50;13.00;;;;;;;15.74;100.00;103336.34;4963450;28;20034;-76
2023/02/11 07:18:15;;;;;;;14.30;12.90;;;;;;;15.74;100.00;103344.59;4971935;28;20038;-75
2023/02/11 07:20:40;;;;;;;15.60;13.93;;;;;;;15.71;100.00;103345.16;4974156;28;20023;-75
2023/02/11 07:23:06;;;;;;;14.27;12.98;;;;;;;15.65;100.00;103349.91;4974051;28;20054;-76
2023/02/11 07:25:32;;;;;;;17.10;15.43;;;;;;;15.71;100.00;103345.97;4973529;28;20023;-75
2023/02/11 07:27:57;;;;;;;15.25;13.80;;;;;;;15.70;100.00;103349.84;4971580;28;20114;-76
2023/02/11 07:30:23;;;;;;;14.57;12.45;;;;;;;16.02;100.00;103357.66;4963260;28;20095;-76
2023/02/11 07:32:49;;;;;;;17.20;15.15;;;;;;;16.05;100.00;103359.00;4954733;28;20041;-78
2023/02/11 07:35:14;;;;;;;15.63;13.05;;;;;;;16.12;100.00;103353.19;4954751;28;20035;-76
2023/02/11 07:37:40;;;;;;;13.85;12.43;;;;;;;16.19;100.00;103351.75;4966427;28;20034;-76
2023/02/11 07:40:07;;;;;;;16.77;14.20;;;;;;;16.31;100.00;103354.94;4974007;28;20027;-76
2023/02/11 07:42:34;;;;;;;15.05;13.55;;;;;;;16.01;100.00;103350.47;4971485;28;20025;-76
2023/02/11 07:45:01;;;;;;;15.43;13.90;;;;;;;16.18;100.00;103352.84;4963058;28;20051;-76
2023/02/11 07:47:26;;;;;;;15.32;13.93;;;;;;;16.08;100.00;103347.41;4964126;28;20105;-75
2023/02/11 07:49:52;;;;;;;15.75;13.68;;;;;;;15.84;100.00;103349.22;4974144;28;20037;-76
2023/02/11 07:52:18;;;;;;;14.07;12.32;;;;;;;15.86;100.00;103344.25;4973822;28;20378;-76
2023/02/11 07:54:44;;;;;;;15.20;13.75;;;;;;;16.16;100.00;103341.25;4970131;28;20062;-76
2023/02/11 07:57:10;;;;;;;13.45;12.13;;;;;;;15.95;100.00;103348.88;4970253;28;20420;-76
2023/02/11 07:59:35;;;;;;;15.05;13.65;;;;;;;15.87;100.00;103346.75;4970974;28;20035;-75
2023/02/11 08:02:01;;;;;;;13.27;11.27;;;;;;;15.92;100.00;103349.44;4973636;28;20031;-75
2023/02/11 08:04:27;;;;;;;11.98;10.75;;;;;;;15.84;100.00;103351.97;4973532;28;20050;-75
2023/02/11 08:06:55;;;;;;;13.52;12.23;;;;;;;15.88;100.00;103353.06;4973422;28;20114;-76
2023/02/11 08:09:22;;;;;;;11.85;10.85;;;;;;;15.96;100.00;103358.81;4973208;28;20035;-75
2023/02/11 08:11:48;;;;;;;13.45;12.10;;;;;;;15.97;100.00;103368.72;4968074;28;20520;-76
2023/02/11 08:14:14;;;;;;;12.20;10.68;;;;;;;15.99;100.00;103369.25;4966524;28;20043;-75
2023/02/11 08:16:39;;;;;;;15.13;10.15;;;;;;;15.82;100.00;103357.78;4967659;28;20538;-76
2023/02/11 08:19:09;;;;;;;14.82;13.55;;;;;;;16.13;100.00;103360.34;4967411;28;20385;-76
2023/02/11 08:21:34;;;;;;;12.27;11.10;;;;;;;15.95;100.00;103362.69;4973528;28;20161;-76
2023/02/11 08:24:01;;;;;;;11.50;9.70;;;;;;;15.98;100.00;103364.03;4973499;28;20114;-76
2023/02/11 08:26:29;;;;;;;15.00;9.18;;;;;;;16.00;100.00;103359.88;4973740;28;20031;-76
2023/02/11 08:28:56;;;;;;;10.15;8.00;;;;;;;15.80;100.00;103358.09;4967475;28;20039;-77
2023/02/11 08:31:24;;;;;;;11.57;10.68;;;;;;;15.78;100.00;103367.72;4964974;28;20030;-76
2023/02/11 08:33:50;;;;;;;8.65;7.70;;;;;;;15.75;100.00;103371.06;4973373;28;20034;-76
2023/02/11 08:36:20;;;;;;;10.57;9.48;;;;;;;15.75;100.00;103373.81;4975481;28;20042;-76
2023/02/11 08:38:46;;;;;;;8.50;7.70;;;;;;;16.06;100.00;103380.78;4972516;28;20032;-77
2023/02/11 08:41:15;;;;;;;10.80;9.95;;;;;;;16.06;100.00;103378.03;4971717;28;20062;-75
2023/02/11 08:43:42;;;;;;;10.32;9.02;;;;;;;15.68;100.00;103378.81;4977042;28;20503;-76
2023/02/11 08:46:12;;;;;;;12.18;11.27;;;;;;;15.44;100.00;103379.44;4970813;28;20485;-77
2023/02/11 08:48:37;;;;;;;12.20;7.07;;;;;;;15.48;100.00;103383.28;4964121;28;20026;-75
2023/02/11 08:51:12;;;;;;;19.15;18.05;;;;;;;15.38;100.00;103385.25;4977062;28;20034;-75
2023/02/11 08:53:38;;;;;;;9.57;8.68;;;;;;;15.53;100.00;103380.50;4977143;28;20026;-75
2023/02/11 08:56:05;;;;;;;10.35;9.30;;;;;;;15.60;100.00;103384.88;4976644;28;20038;-76
2023/02/11 08:58:31;;;;;;;10.85;9.95;;;;;;;15.52;100.00;103394.56;4976410;28;20555;-78
2023/02/11 09:00:57;;;;;;;10.40;9.45;;;;;;;15.41;100.00;103388.25;4970159;28;20030;-76
2023/02/11 09:03:23;;;;;;;11.30;9.15;;;;;;;15.55;100.00;103388.47;4968239;28;20513;-76
2023/02/11 09:05:52;;;;;;;8.40;7.60;;;;;;;15.59;100.00;103391.50;4957220;28;20070;-78
2023/02/11 09:08:19;;;;;;;11.77;9.98;;;;;;;15.66;100.00;103403.09;4960726;28;20042;-77
2023/02/11 09:10:45;;;;;;;10.60;9.48;;;;;;;15.55;100.00;103399.50;4986871;28;20022;-76
2023/02/11 09:13:11;;;;;;;10.63;9.52;;;;;;;15.91;100.00;103402.94;4979019;28;20054;-78
2023/02/11 09:15:36;;;;;;;6.97;6.05;;;;;;;15.79;100.00;103407.97;4975240;28;20477;-77
2023/02/11 09:18:03;;;;;;;8.10;7.30;;;;;;;15.74;100.00;103400.56;4980969;28;20031;-77
2023/02/11 09:20:29;;;;;;;7.32;6.55;;;;;;;15.66;100.00;103394.81;4971391;28;20023;-75
2023/02/11 09:22:56;;;;;;;9.88;8.07;;;;;;;15.76;100.00;103390.06;4976545;28;20492;-79
2023/02/11 09:25:22;;;;;;;15.57;13.43;;;;;;;15.78;100.00;103387.84;4974108;28;20031;-75
2023/02/11 09:27:50;;;;;;;22.27;18.05;;;;;;;15.98;100.00;103391.59;4976255;28;20023;-77
2023/02/11 09:30:15;;;;;;;58.10;38.65;;;;;;;15.49;100.00;103397.88;4976143;28;20037;-75
2023/02/11 09:32:41;;;;;;;72.88;38.60;;;;;;;15.46;100.00;103399.28;4976155;28;20030;-75
2023/02/11 09:35:07;;;;;;;31.17;18.30;;;;;;;15.40;100.00;103399.56;4975050;28;20026;-76
2023/02/11 09:37:33;;;;;;;23.52;12.02;;;;;;;15.52;100.00;103400.09;4975997;28;20053;-75
2023/02/11 09:39:59;;;;;;;140.40;48.28;;;;;;;15.62;100.00;103405.56;4970324;28;20400;-76
2023/02/11 09:42:49;;;;;;;33.90;21.45;;;;;;;15.86;100.00;103404.91;4976082;28;20027;-77
2023/02/11 09:45:19;;;;;;;9.13;6.70;;;;;;;15.40;100.00;103416.91;4975748;28;20112;-75
2023/02/11 09:47:49;;;;;;;10.30;7.93;;;;;;;15.49;100.00;103404.25;4974969;28;20465;-75
2023/02/11 09:50:26;;;;;;;16.17;11.65;;;;;;;15.67;100.00;103418.50;4975972;28;20054;-76
2023/02/11 09:52:57;;;;;;;11.07;6.75;;;;;;;15.83;100.00;103414.56;4970258;28;20027;-75
2023/02/11 09:55:27;;;;;;;60.08;28.13;;;;;;;16.04;100.00;103420.81;4963939;28;20038;-77
2023/02/11 09:57:54;;;;;;;23.00;13.65;;;;;;;15.98;100.00;103424.69;4956503;28;20038;-75
2023/02/11 10:00:58;;;;;;;29.85;14.90;;;;;;;15.98;100.00;103424.69;4956626;28;20057;-76
2023/02/11 10:03:29;;;;;;;78.90;40.38;;;;;;;15.95;100.00;103428.03;4896934;29;20040;-75
2023/02/11 10:06:20;;;;;;;50.42;23.45;;;;;;;15.89;100.00;103424.47;4899483;29;20059;-76
2023/02/11 10:09:03;;;;;;;201.88;87.40;;;;;;;15.94;100.00;103440.16;4948571;28;20053;-73
2023/02/11 10:11:54;;;;;;;128.25;54.38;;;;;;;15.67;100.00;103435.06;4975069;28;20397;-75
2023/02/11 10:15:07;;;;;;;67.32;27.83;;;;;;;15.75;100.00;103440.78;4973695;28;20037;-74
2023/02/11 10:18:03;;;;;;;167.68;82.15;;;;;;;15.77;100.00;103446.84;4944428;28;20047;-75
2023/02/11 10:21:07;;;;;;;63.83;32.10;;;;;;;15.88;100.00;103444.88;4975383;28;20023;-75
2023/02/11 10:23:37;;;;;;;192.63;91.30;;;;;;;15.73;100.00;103455.97;4969084;28;20053;-75
2023/02/11 10:26:12;;;;;;;347.70;196.77;;;;;;;15.96;100.00;103451.72;4975254;28;20031;-72
2023/02/11 10:28:41;;;;;;;232.55;125.35;;;;;;;16.08;100.00;103450.25;4975489;28;20030;-75
2023/02/11 10:31:38;;;;;;;583.38;360.00;;;;;;;15.96;100.00;103455.31;4974432;28;20033;-75
2023/02/11 10:34:06;;;;;;;321.13;194.73;;;;;;;15.93;100.00;103458.63;4973167;28;20042;-73
2023/02/11 10:36:37;;;;;;;220.80;121.25;;;;;;;15.95;100.00;103463.88;4973460;28;20397;-75
2023/02/11 10:39:12;;;;;;;93.45;54.50;;;;;;;15.99;100.00;103456.66;4959166;28;20037;-74
2023/02/11 10:41:42;;;;;;;135.95;76.90;;;;;;;15.91;100.00;103463.59;4974851;28;20041;-75
2023/02/11 10:44:36;;;;;;;31.58;15.50;;;;;;;15.69;100.00;103458.47;4975006;28;20027;-75
2023/02/11 10:47:22;;;;;;;46.42;30.27;;;;;;;15.62;100.00;103459.88;4974182;28;20039;-75
2023/02/11 10:49:48;;;;;;;9.98;8.52;;;;;;;15.70;100.00;103462.88;4974633;28;20026;-75
2023/02/11 10:52:17;;;;;;;10.85;9.77;;;;;;;15.75;100.00;103464.78;4972620;28;20544;-75
2023/02/11 10:54:58;;;;;;;9.27;8.43;;;;;;;15.61;100.00;103466.47;4960147;28;20481;-75
2023/02/11 10:57:30;;;;;;;11.70;10.13;;;;;;;15.85;100.00;103461.97;4954748;28;20023;-75
2023/02/11 11:00:21;;;;;;;7.63;5.13;;;;;;;16.08;100.00;103466.81;4953875;28;20482;-76
2023/02/11 11:02:54;;;;;;;7.45;3.05;;;;;;;16.09;100.00;103462.94;4964394;28;20039;-74
2023/02/11 11:05:35;;;;;;;6.13;4.45;;;;;;;15.97;100.00;103470.75;4973519;28;20058;-74
2023/02/11 11:08:06;;;;;;;9.80;6.30;;;;;;;15.95;100.00;103463.88;4963240;28;20038;-74
2023/02/11 11:10:44;;;;;;;12.23;10.18;;;;;;;16.11;100.00;103461.88;4974398;28;20073;-75
2023/02/11 11:13:36;;;;;;;7.75;5.38;;;;;;;16.06;100.00;103460.75;4975805;28;20034;-75
2023/02/11 11:16:28;;;;;;;9.05;4.00;;;;;;;16.11;100.00;103454.41;4972832;28;20102;-75
2023/02/11 11:19:19;;;;;;;7.22;3.42;;;;;;;16.12;100.00;103452.47;4968925;28;20043;-74
2023/02/11 11:21:49;;;;;;;11.18;3.95;;;;;;;16.28;100.00;103440.22;4973256;28;20019;-74
2023/02/11 11:24:36;;;;;;;8.48;4.60;;;;;;;16.20;100.00;103443.59;4971735;28;20397;-74
2023/02/11 11:27:04;;;;;;;12.90;3.33;;;;;;;16.22;100.00;103452.41;4974454;28;20375;-73
2023/02/11 11:29:44;;;;;;;7.15;3.15;;;;;;;16.11;100.00;103451.66;4972233;28;20023;-75
2023/02/11 11:32:21;;;;;;;5.88;2.67;;;;;;;16.19;100.00;103445.53;4967944;28;20038;-73
2023/02/11 11:34:58;;;;;;;5.93;2.75;;;;;;;16.16;100.00;103442.50;4972413;28;20031;-73